Nunnelly, Tennessee
Current Conditions -  °F | °C
As of 8:35 AM on Tuesday 27 Jan 2015 (Local Time) from KMRC Reporting Station
Clear Clear  
Wind Chill: 32°   Ceiling: Unl
Heat Index: 37°   Visibility: 10mi
Dew Point: 37°   Wind: 7mph
Humidity: 100%   Direction: 350°N
Pressure: 30"   Gusts: NA
Location:  35.86°N, 87.47°W
Report Text: KMRC 271435Z AUTO 35006KT 10SM CLR 03/03 A3000 RMK
Loading
Personal Weather Stations






























Interactive Weather Map New forecast layout! Learn more

10-Day Weather Forecast

Advertisements
Track Severe Weather on mobile